createdAt,value
2022-08-26T00:01:29.672Z,95.16
2022-08-26T00:03:56.970Z,95.18
2022-08-26T00:06:25.404Z,95.13
2022-08-26T00:08:52.198Z,95.36
2022-08-26T00:11:26.888Z,95.52
2022-08-26T00:13:57.342Z,95.51
2022-08-26T00:16:26.540Z,95.14
2022-08-26T00:18:54.382Z,95.52
2022-08-26T00:21:21.564Z,95.93
2022-08-26T00:23:48.326Z,95.92
2022-08-26T00:26:15.470Z,95.33
2022-08-26T00:28:42.381Z,95.81
2022-08-26T00:31:09.482Z,95.39
2022-08-26T00:33:39.287Z,95.40
2022-08-26T00:36:07.345Z,96.00
2022-08-26T00:38:37.859Z,96.02
2022-08-26T00:41:05.760Z,96.19
2022-08-26T00:43:46.176Z,96.61
2022-08-26T00:46:23.689Z,96.36
2022-08-26T00:48:53.883Z,95.39
2022-08-26T00:51:24.804Z,95.15
2022-08-26T00:54:05.672Z,94.62
2022-08-26T00:56:47.024Z,94.56
2022-08-26T00:59:17.952Z,94.64
2022-08-26T01:01:45.908Z,94.40
2022-08-26T01:04:17.787Z,95.09
2022-08-26T01:06:46.721Z,96.09
2022-08-26T01:09:14.181Z,96.24
2022-08-26T01:11:41.831Z,96.57
2022-08-26T01:14:09.536Z,96.55
2022-08-26T01:16:37.129Z,96.67
2022-08-26T01:19:16.259Z,96.60
2022-08-26T01:21:57.776Z,96.69
2022-08-26T01:24:28.353Z,97.10
2022-08-26T01:27:01.767Z,96.73
2022-08-26T01:29:30.054Z,97.39
2022-08-26T01:31:57.916Z,97.65
2022-08-26T01:34:28.075Z,97.24
2022-08-26T01:37:01.924Z,97.51
2022-08-26T01:39:29.237Z,97.12
2022-08-26T01:41:58.004Z,97.48
2022-08-26T01:44:36.297Z,97.01
2022-08-26T01:47:05.000Z,96.59
2022-08-26T01:49:35.771Z,96.57
2022-08-26T01:52:04.537Z,96.56
2022-08-26T01:54:32.465Z,96.39
2022-08-26T01:56:59.726Z,96.13
2022-08-26T01:59:26.759Z,95.93
2022-08-26T02:01:53.698Z,96.11
2022-08-26T02:04:34.434Z,96.04
2022-08-26T02:07:09.218Z,96.03
2022-08-26T02:09:41.401Z,96.14
2022-08-26T02:12:12.417Z,96.70
2022-08-26T02:14:44.517Z,96.69
2022-08-26T02:17:11.577Z,96.73
2022-08-26T02:19:42.006Z,96.49
2022-08-26T02:22:14.370Z,96.50
2022-08-26T02:24:53.600Z,97.06
2022-08-26T02:27:32.117Z,96.40
2022-08-26T02:30:10.250Z,97.04
2022-08-26T02:32:38.162Z,97.91
2022-08-26T02:35:08.380Z,98.47
2022-08-26T02:37:36.192Z,98.26
2022-08-26T02:40:05.168Z,98.05
2022-08-26T02:42:32.340Z,97.53
2022-08-26T02:44:59.498Z,98.04
2022-08-26T02:47:28.989Z,97.77
2022-08-26T02:49:55.925Z,98.04
2022-08-26T02:52:22.867Z,97.73
2022-08-26T02:54:49.735Z,98.27
2022-08-26T02:57:17.370Z,98.21
2022-08-26T02:59:44.230Z,98.03
2022-08-26T03:02:11.363Z,98.17
2022-08-26T03:04:39.507Z,98.21
2022-08-26T03:07:07.203Z,97.96
2022-08-26T03:09:35.021Z,98.54
2022-08-26T03:12:02.147Z,98.33
2022-08-26T03:14:29.829Z,98.17
2022-08-26T03:16:56.787Z,97.67
2022-08-26T03:19:25.143Z,97.77
2022-08-26T03:21:52.987Z,98.20
2022-08-26T03:24:26.292Z,98.04
2022-08-26T03:26:53.261Z,97.77
2022-08-26T03:29:39.863Z,98.42
2022-08-26T03:32:06.895Z,98.38
2022-08-26T03:34:34.314Z,98.75
2022-08-26T03:37:01.517Z,98.51
2022-08-26T03:39:28.815Z,99.23
2022-08-26T03:41:58.965Z,99.06
2022-08-26T03:44:26.522Z,98.54
2022-08-26T03:46:54.631Z,98.39
2022-08-26T03:49:22.115Z,98.14
2022-08-26T03:51:48.941Z,98.78
2022-08-26T03:54:16.924Z,99.02
2022-08-26T03:56:43.753Z,98.96
2022-08-26T03:59:13.410Z,98.49
2022-08-26T04:01:40.250Z,99.21
2022-08-26T04:04:07.034Z,98.77
2022-08-26T04:06:37.225Z,98.40
2022-08-26T04:09:09.763Z,98.42
2022-08-26T04:11:39.448Z,98.22
2022-08-26T04:14:17.635Z,97.06
2022-08-26T04:16:47.386Z,97.10
2022-08-26T04:19:15.532Z,97.26
2022-08-26T04:21:43.520Z,96.54
2022-08-26T04:24:13.207Z,96.45
2022-08-26T04:26:42.756Z,96.18
2022-08-26T04:29:18.241Z,96.85
2022-08-26T04:31:45.647Z,96.09
2022-08-26T04:34:14.108Z,95.89
2022-08-26T04:36:42.005Z,96.37
2022-08-26T04:39:12.152Z,96.07
2022-08-26T04:41:39.671Z,95.59
2022-08-26T04:44:07.799Z,94.99
2022-08-26T04:46:35.461Z,94.91
2022-08-26T04:49:08.843Z,95.10
2022-08-26T04:51:36.556Z,94.69
2022-08-26T04:54:04.425Z,92.90
2022-08-26T04:56:34.153Z,92.83
2022-08-26T04:59:03.100Z,91.74
2022-08-26T05:01:31.639Z,91.49
2022-08-26T05:03:59.021Z,91.24
2022-08-26T05:06:26.271Z,91.03
2022-08-26T05:08:54.200Z,90.44
2022-08-26T05:11:22.058Z,90.32
2022-08-26T05:13:49.249Z,89.94
2022-08-26T05:16:16.985Z,89.82
2022-08-26T05:18:45.754Z,88.85
2022-08-26T05:21:25.638Z,88.01
2022-08-26T05:23:56.751Z,87.95
2022-08-26T05:26:24.515Z,87.88
2022-08-26T05:28:54.677Z,87.73
2022-08-26T05:31:25.298Z,88.23
2022-08-26T05:33:52.647Z,87.80
2022-08-26T05:36:22.021Z,87.03
2022-08-26T05:38:49.759Z,86.78
2022-08-26T05:41:34.361Z,87.34
2022-08-26T05:44:06.795Z,86.24
2022-08-26T05:46:34.704Z,85.83
2022-08-26T05:49:02.629Z,85.65
2022-08-26T05:51:31.015Z,83.83
2022-08-26T05:53:58.817Z,82.91
2022-08-26T05:56:27.714Z,82.52
2022-08-26T05:58:56.347Z,82.11
2022-08-26T06:01:26.891Z,81.73
2022-08-26T06:04:01.331Z,80.70
2022-08-26T06:06:32.303Z,81.19
2022-08-26T06:09:01.255Z,81.17
2022-08-26T06:11:30.602Z,80.78
2022-08-26T06:14:03.580Z,81.20
2022-08-26T06:16:38.284Z,79.92
2022-08-26T06:19:10.768Z,79.62
2022-08-26T06:21:41.316Z,79.22
2022-08-26T06:24:30.432Z,78.36
2022-08-26T06:27:01.229Z,78.57
2022-08-26T06:29:30.082Z,78.34
2022-08-26T06:31:58.039Z,78.18
2022-08-26T06:34:29.679Z,78.58
2022-08-26T06:36:58.681Z,77.92
2022-08-26T06:39:25.629Z,76.90
2022-08-26T06:41:52.479Z,76.79
2022-08-26T06:44:19.330Z,76.29
2022-08-26T06:46:50.280Z,76.36
2022-08-26T06:49:17.724Z,76.44
2022-08-26T06:51:44.498Z,76.79
2022-08-26T06:54:11.506Z,76.84
2022-08-26T06:56:41.770Z,75.71
2022-08-26T06:59:11.190Z,74.61
2022-08-26T07:01:44.614Z,74.68
2022-08-26T07:04:15.708Z,73.78
2022-08-26T07:06:48.980Z,74.14
2022-08-26T07:09:16.966Z,72.75
2022-08-26T07:11:44.663Z,72.71
2022-08-26T07:14:12.218Z,70.99
2022-08-26T07:16:39.634Z,70.90
2022-08-26T07:19:10.627Z,70.96
2022-08-26T07:21:42.016Z,69.15
2022-08-26T07:24:11.095Z,68.18
2022-08-26T07:26:38.836Z,68.48
2022-08-26T07:29:12.609Z,67.94
2022-08-26T07:31:42.750Z,67.83
2022-08-26T07:34:10.811Z,66.88
2022-08-26T07:36:38.205Z,65.95
2022-08-26T07:39:06.280Z,63.46
2022-08-26T07:41:33.312Z,63.35
2022-08-26T07:44:00.900Z,62.99
2022-08-26T07:46:30.307Z,63.59
2022-08-26T07:48:57.722Z,63.04
2022-08-26T07:51:25.656Z,63.25
2022-08-26T07:53:53.177Z,62.92
2022-08-26T07:56:23.269Z,63.31
2022-08-26T07:58:54.110Z,62.89
2022-08-26T08:01:23.805Z,62.70
2022-08-26T08:03:53.340Z,64.17
2022-08-26T08:06:22.536Z,64.35
2022-08-26T08:08:55.242Z,64.59
2022-08-26T08:11:23.736Z,65.46
2022-08-26T08:13:56.146Z,64.46
2022-08-26T08:16:28.559Z,63.90
2022-08-26T08:18:59.371Z,64.25
2022-08-26T08:21:27.859Z,63.42
2022-08-26T08:23:57.340Z,63.59
2022-08-26T08:26:25.707Z,63.71
2022-08-26T08:28:57.149Z,61.90
2022-08-26T08:31:55.737Z,61.63
2022-08-26T08:34:18.230Z,61.54
2022-08-26T08:36:46.375Z,62.15
2022-08-26T08:39:13.863Z,60.47
2022-08-26T08:41:50.128Z,59.88
2022-08-26T08:44:31.512Z,57.61
2022-08-26T08:47:11.405Z,58.83
2022-08-26T08:49:38.155Z,58.44
2022-08-26T08:52:14.832Z,58.06
2022-08-26T08:54:41.692Z,59.28
2022-08-26T08:57:20.729Z,57.37
2022-08-26T09:00:00.477Z,56.21
2022-08-26T09:02:34.627Z,56.20
2022-08-26T09:05:17.380Z,55.59
2022-08-26T09:07:50.372Z,53.59
2022-08-26T09:10:40.465Z,53.48
2022-08-26T09:13:16.347Z,54.46
2022-08-26T09:15:56.676Z,54.36
2022-08-26T09:18:48.774Z,53.67
2022-08-26T09:21:18.345Z,53.50
2022-08-26T09:23:49.471Z,53.44
2022-08-26T09:26:45.164Z,51.86
2022-08-26T09:29:24.036Z,51.83
2022-08-26T09:31:52.029Z,53.30
2022-08-26T09:34:19.104Z,52.97
2022-08-26T09:36:54.391Z,54.20
2022-08-26T09:39:23.875Z,54.60
2022-08-26T09:42:09.619Z,53.12
2022-08-26T09:44:56.567Z,51.28
2022-08-26T09:47:31.566Z,52.45
2022-08-26T09:50:29.999Z,51.13
2022-08-26T09:53:28.800Z,47.49
2022-08-26T09:56:17.734Z,46.98
2022-08-26T09:58:47.374Z,46.08
2022-08-26T10:01:22.964Z,45.92
2022-08-26T10:03:51.435Z,45.85
2022-08-26T10:06:18.159Z,47.80
2022-08-26T10:08:53.088Z,47.77
2022-08-26T10:11:47.195Z,48.05
2022-08-26T10:14:18.536Z,47.35
2022-08-26T10:16:59.560Z,48.11
2022-08-26T10:19:55.864Z,45.88
2022-08-26T10:22:26.204Z,47.20
2022-08-26T10:24:59.613Z,46.82
2022-08-26T10:27:49.724Z,47.09
2022-08-26T10:30:24.007Z,46.73
2022-08-26T10:32:56.807Z,48.06
2022-08-26T10:35:32.878Z,47.57
2022-08-26T10:38:11.373Z,48.61
2022-08-26T10:40:53.270Z,46.12
2022-08-26T10:43:28.302Z,46.50
2022-08-26T10:46:02.206Z,46.58
2022-08-26T10:48:56.419Z,47.78
2022-08-26T10:51:32.135Z,45.71
2022-08-26T10:54:15.595Z,45.63
2022-08-26T10:56:58.595Z,47.30
2022-08-26T10:59:34.670Z,46.65
2022-08-26T11:02:11.551Z,46.06
2022-08-26T11:04:48.191Z,45.77
2022-08-26T11:07:36.881Z,46.46
2022-08-26T11:10:21.532Z,45.44
2022-08-26T11:13:03.795Z,45.12
2022-08-26T11:15:31.958Z,43.79
2022-08-26T11:18:03.601Z,44.58
2022-08-26T11:20:31.087Z,45.49
2022-08-26T11:23:20.581Z,45.73
2022-08-26T11:25:57.110Z,45.22
2022-08-26T11:28:44.092Z,43.64
2022-08-26T11:31:39.973Z,42.73
2022-08-26T11:34:13.722Z,42.29
2022-08-26T11:36:54.544Z,41.65
2022-08-26T11:39:47.848Z,39.71
2022-08-26T11:42:23.702Z,40.36
2022-08-26T11:44:57.911Z,38.67
2022-08-26T11:47:29.339Z,40.44
2022-08-26T11:50:26.714Z,41.53
2022-08-26T11:53:04.352Z,41.20
2022-08-26T11:55:36.202Z,41.22
2022-08-26T11:58:05.769Z,40.08
2022-08-26T12:00:47.636Z,41.89
2022-08-26T12:03:21.473Z,40.48
2022-08-26T12:05:52.406Z,38.55
2022-08-26T12:08:21.689Z,40.31
2022-08-26T12:10:51.419Z,38.93
2022-08-26T12:13:22.833Z,42.76
2022-08-26T12:15:58.029Z,44.99
2022-08-26T12:18:32.076Z,40.80
2022-08-26T12:21:01.550Z,41.13
2022-08-26T12:23:40.140Z,43.28
2022-08-26T12:26:22.549Z,43.97
2022-08-26T12:29:00.904Z,44.20
2022-08-26T12:31:33.763Z,44.42
2022-08-26T12:34:04.109Z,42.22
2022-08-26T12:36:32.250Z,41.66
2022-08-26T12:39:09.433Z,43.83
2022-08-26T12:41:42.566Z,43.57
2022-08-26T12:44:29.511Z,44.84
2022-08-26T12:47:11.712Z,44.82
2022-08-26T12:49:41.348Z,45.41
2022-08-26T12:52:29.867Z,44.46
2022-08-26T12:55:02.933Z,44.18
2022-08-26T12:57:33.172Z,45.84
2022-08-26T13:00:28.372Z,46.62
2022-08-26T13:02:55.586Z,45.80
2022-08-26T13:05:26.024Z,46.03
2022-08-26T13:08:10.581Z,41.48
2022-08-26T13:10:40.310Z,42.24
2022-08-26T13:13:07.182Z,42.78
2022-08-26T13:15:34.020Z,41.56
2022-08-26T13:18:03.341Z,42.83
2022-08-26T13:20:30.625Z,44.11
2022-08-26T13:22:59.079Z,42.56
2022-08-26T13:25:26.438Z,43.01
2022-08-26T13:27:53.276Z,42.66
2022-08-26T13:30:20.182Z,43.42
2022-08-26T13:32:46.976Z,42.23
2022-08-26T13:35:13.765Z,42.00
2022-08-26T13:37:40.478Z,42.17
2022-08-26T13:40:09.591Z,41.54
2022-08-26T13:42:36.394Z,41.52
2022-08-26T13:45:05.009Z,41.56
2022-08-26T13:47:31.858Z,41.61
2022-08-26T13:49:58.575Z,41.67
2022-08-26T13:52:30.367Z,41.90
2022-08-26T13:54:58.249Z,39.97
2022-08-26T13:57:27.915Z,40.58
2022-08-26T13:59:56.513Z,41.31
2022-08-26T14:02:23.343Z,40.71
2022-08-26T14:04:50.151Z,39.66
2022-08-26T14:07:17.090Z,40.69
2022-08-26T14:09:43.852Z,39.43
2022-08-26T14:12:10.524Z,41.18
2022-08-26T14:14:37.336Z,40.75
2022-08-26T14:17:04.034Z,39.53
2022-08-26T14:19:30.740Z,40.27
2022-08-26T14:21:57.771Z,40.73
2022-08-26T14:24:24.442Z,41.43
2022-08-26T14:26:51.103Z,41.06
2022-08-26T14:29:17.866Z,41.42
2022-08-26T14:31:44.766Z,41.19
2022-08-26T14:34:14.004Z,41.71
2022-08-26T14:36:40.713Z,42.39
2022-08-26T14:39:09.792Z,42.59
2022-08-26T14:41:54.692Z,42.04
2022-08-26T14:44:25.996Z,42.30
2022-08-26T14:46:53.552Z,42.47
2022-08-26T14:49:23.037Z,42.80
2022-08-26T14:51:50.272Z,43.00
2022-08-26T14:54:18.295Z,43.29
2022-08-26T14:56:52.440Z,42.86
2022-08-26T14:59:23.192Z,43.12
2022-08-26T15:01:50.077Z,43.25
2022-08-26T15:04:17.232Z,48.67
2022-08-26T15:06:44.087Z,49.21
2022-08-26T15:09:11.402Z,48.56
2022-08-26T15:11:38.252Z,48.30
2022-08-26T15:14:06.320Z,48.49
2022-08-26T15:16:34.330Z,46.91
2022-08-26T15:19:04.492Z,46.07
2022-08-26T15:21:33.080Z,44.63
2022-08-26T15:24:00.986Z,44.53
2022-08-26T15:26:29.828Z,45.83
2022-08-26T15:28:56.975Z,46.35
2022-08-26T15:31:31.123Z,47.22
2022-08-26T15:34:00.219Z,48.05
2022-08-26T15:36:28.887Z,47.17
2022-08-26T15:38:56.764Z,46.79
2022-08-26T15:41:24.453Z,46.77
2022-08-26T15:43:51.656Z,46.23
2022-08-26T15:46:19.306Z,45.75
2022-08-26T15:48:46.364Z,44.48
2022-08-26T15:51:25.987Z,45.04
2022-08-26T15:53:56.339Z,45.01
2022-08-26T15:56:27.760Z,46.19
2022-08-26T15:58:56.141Z,47.04
2022-08-26T16:01:27.748Z,47.00
2022-08-26T16:03:55.398Z,45.60
2022-08-26T16:06:27.969Z,46.94
2022-08-26T16:08:56.144Z,47.99
2022-08-26T16:11:23.721Z,47.00
2022-08-26T16:13:50.650Z,47.57
2022-08-26T16:16:17.744Z,48.86
2022-08-26T16:18:45.395Z,49.18
2022-08-26T16:21:17.295Z,49.21
2022-08-26T16:23:45.269Z,48.46
2022-08-26T16:26:19.634Z,47.64
2022-08-26T16:28:47.427Z,47.92
2022-08-26T16:31:15.242Z,49.05
2022-08-26T16:33:42.037Z,49.21
2022-08-26T16:36:09.656Z,49.04
2022-08-26T16:38:37.836Z,49.29
2022-08-26T16:41:05.329Z,49.48
2022-08-26T16:43:32.098Z,49.74
2022-08-26T16:45:58.898Z,49.79
2022-08-26T16:48:26.849Z,50.71
2022-08-26T16:50:55.514Z,51.62
2022-08-26T16:53:23.259Z,53.47
2022-08-26T16:55:50.645Z,54.05
2022-08-26T16:58:18.078Z,54.96
2022-08-26T17:00:45.369Z,55.84
2022-08-26T17:03:12.556Z,57.18
2022-08-26T17:05:40.331Z,56.80
2022-08-26T17:08:07.170Z,56.71
2022-08-26T17:10:34.667Z,58.35
2022-08-26T17:13:01.381Z,59.07
2022-08-26T17:15:28.425Z,58.77
2022-08-26T17:17:56.191Z,59.75
2022-08-26T17:20:24.355Z,61.38
2022-08-26T17:22:53.459Z,62.54
2022-08-26T17:25:22.122Z,63.39
2022-08-26T17:27:48.951Z,63.81
2022-08-26T17:30:17.186Z,65.35
2022-08-26T17:32:44.163Z,65.52
2022-08-26T17:35:12.877Z,65.54
2022-08-26T17:37:40.895Z,65.31
2022-08-26T17:40:11.265Z,66.47
2022-08-26T17:42:39.372Z,66.68
2022-08-26T17:45:07.474Z,67.49
2022-08-26T17:47:34.937Z,67.63
2022-08-26T17:50:02.055Z,68.20
2022-08-26T17:52:29.456Z,68.87
2022-08-26T17:54:57.298Z,69.35
2022-08-26T17:57:25.208Z,70.22
2022-08-26T17:59:52.699Z,71.06
2022-08-26T18:02:21.210Z,71.75
2022-08-26T18:04:48.037Z,72.32
2022-08-26T18:07:15.762Z,72.01
2022-08-26T18:09:42.796Z,72.19
2022-08-26T18:12:09.816Z,73.06
2022-08-26T18:14:36.815Z,73.21
2022-08-26T18:17:04.085Z,73.76
2022-08-26T18:19:31.454Z,74.15
2022-08-26T18:21:58.733Z,74.51
2022-08-26T18:24:25.658Z,75.40
2022-08-26T18:26:52.377Z,75.72
2022-08-26T18:29:20.103Z,75.29
2022-08-26T18:31:48.486Z,75.42
2022-08-26T18:34:16.903Z,75.63
2022-08-26T18:36:44.078Z,75.15
2022-08-26T18:39:12.178Z,75.36
2022-08-26T18:41:46.031Z,74.75
2022-08-26T18:44:15.092Z,74.07
2022-08-26T18:46:42.493Z,74.20
2022-08-26T18:49:12.424Z,74.38
2022-08-26T18:51:39.567Z,73.49
2022-08-26T18:54:07.474Z,74.57
2022-08-26T18:56:36.377Z,74.94
2022-08-26T18:59:05.416Z,74.28
2022-08-26T19:01:32.691Z,73.91
2022-08-26T19:04:01.454Z,74.07
2022-08-26T19:06:31.573Z,74.28
2022-08-26T19:08:59.071Z,74.67
2022-08-26T19:11:32.109Z,75.20
2022-08-26T19:14:01.434Z,75.60
2022-08-26T19:16:29.050Z,75.78
2022-08-26T19:18:56.600Z,76.19
2022-08-26T19:21:23.388Z,76.48
2022-08-26T19:23:51.307Z,76.72
2022-08-26T19:26:19.346Z,77.43
2022-08-26T19:28:48.219Z,77.31
2022-08-26T19:31:15.582Z,77.18
2022-08-26T19:33:45.482Z,77.49
2022-08-26T19:36:22.022Z,77.75
2022-08-26T19:38:50.100Z,78.12
2022-08-26T19:41:37.911Z,78.37
2022-08-26T19:44:33.752Z,78.41
2022-08-26T19:47:00.892Z,78.53
2022-08-26T19:49:27.608Z,78.33
2022-08-26T19:51:54.565Z,78.47
2022-08-26T19:54:24.108Z,78.61
2022-08-26T19:56:50.665Z,79.00
2022-08-26T19:59:17.768Z,79.90
2022-08-26T20:01:44.926Z,79.99
2022-08-26T20:04:12.468Z,79.90
2022-08-26T20:06:39.327Z,80.61
2022-08-26T20:09:06.269Z,80.94
2022-08-26T20:11:33.024Z,81.68
2022-08-26T20:13:59.869Z,81.91
2022-08-26T20:16:26.653Z,82.40
2022-08-26T20:19:11.862Z,82.92
2022-08-26T20:21:40.446Z,83.23
2022-08-26T20:24:13.251Z,83.34
2022-08-26T20:26:43.208Z,82.91
2022-08-26T20:29:12.896Z,82.78
2022-08-26T20:31:40.097Z,82.93
2022-08-26T20:34:07.252Z,83.22
2022-08-26T20:36:34.531Z,83.52
2022-08-26T20:39:01.493Z,84.02
2022-08-26T20:41:28.627Z,83.05
2022-08-26T20:43:56.408Z,83.26
2022-08-26T20:46:25.185Z,82.77
2022-08-26T20:48:53.683Z,83.44
2022-08-26T20:51:23.524Z,83.11
2022-08-26T20:53:51.145Z,83.58
2022-08-26T20:56:23.563Z,83.75
2022-08-26T20:58:53.324Z,83.65
2022-08-26T21:01:25.961Z,83.64
2022-08-26T21:03:55.183Z,83.54
2022-08-26T21:06:21.998Z,83.27
2022-08-26T21:08:50.341Z,83.23
2022-08-26T21:11:19.784Z,82.93
2022-08-26T21:16:36.623Z,83.21
2022-08-26T21:19:04.391Z,82.63
2022-08-26T21:21:31.486Z,83.50
2022-08-26T21:23:58.814Z,83.53
2022-08-26T21:26:26.391Z,83.83
2022-08-26T21:28:53.842Z,83.78
2022-08-26T21:31:24.487Z,83.22
2022-08-26T21:33:51.866Z,83.22
2022-08-26T21:36:19.360Z,83.79
2022-08-26T21:38:46.136Z,83.50
2022-08-26T21:41:19.445Z,83.50
2022-08-26T21:43:47.882Z,83.40
2022-08-26T21:46:21.877Z,83.88
2022-08-26T21:48:56.158Z,83.76
2022-08-26T21:51:25.428Z,84.02
2022-08-26T21:53:52.950Z,83.71
2022-08-26T21:56:21.207Z,83.28
2022-08-26T21:58:48.094Z,83.30
2022-08-26T22:01:19.736Z,82.97
2022-08-26T22:03:47.906Z,83.10
2022-08-26T22:06:21.245Z,83.30
2022-08-26T22:08:47.996Z,83.40
2022-08-26T22:11:15.986Z,83.24
2022-08-26T22:13:43.503Z,82.98
2022-08-26T22:16:11.440Z,83.56
2022-08-26T22:18:38.953Z,83.65
2022-08-26T22:21:08.674Z,83.28
2022-08-26T22:23:36.807Z,83.47
2022-08-26T22:26:05.589Z,83.79
2022-08-26T22:28:32.648Z,84.02
2022-08-26T22:30:59.450Z,83.17
2022-08-26T22:33:26.301Z,83.99
2022-08-26T22:35:53.730Z,83.65
2022-08-26T22:38:21.154Z,84.52
2022-08-26T22:40:50.875Z,84.50
2022-08-26T22:43:19.327Z,84.07
2022-08-26T22:45:48.404Z,83.41
2022-08-26T22:48:18.236Z,83.56
2022-08-26T22:50:46.622Z,83.46
2022-08-26T22:53:14.431Z,83.52
2022-08-26T22:55:41.343Z,83.26
2022-08-26T22:58:08.134Z,82.81
2022-08-26T23:00:35.510Z,83.10
2022-08-26T23:03:04.249Z,83.44
2022-08-26T23:05:31.860Z,83.96
2022-08-26T23:07:59.022Z,84.40
2022-08-26T23:10:25.862Z,84.39
2022-08-26T23:12:53.136Z,83.94
2022-08-26T23:15:21.222Z,84.73
2022-08-26T23:17:52.338Z,85.48
2022-08-26T23:20:27.075Z,84.90
2022-08-26T23:22:55.015Z,84.41
2022-08-26T23:25:22.657Z,84.66
2022-08-26T23:27:51.732Z,84.54
2022-08-26T23:30:24.121Z,84.64
2022-08-26T23:32:50.809Z,85.54
2022-08-26T23:35:20.512Z,85.98
2022-08-26T23:37:54.030Z,85.38
2022-08-26T23:40:32.278Z,84.90
2022-08-26T23:43:01.507Z,85.60
2022-08-26T23:45:28.320Z,85.31
2022-08-26T23:47:55.434Z,86.13
2022-08-26T23:50:44.702Z,86.91
2022-08-26T23:53:19.161Z,86.16
2022-08-26T23:55:48.854Z,86.05
2022-08-26T23:58:17.376Z,87.35
